Flight Track Log - Related Links

Times and Time Zones

All times are in EDT time to prevent confusion due to time zone crossing. See the AMX536 flight status page for this flight to view local times or setup timezone preferences in your user account.

Time Position Orientation Groundspeed Altitude Reporting Facility
EDT Latitude Longitude Course Direction KTS MPH feet Rate Location/Type
Mon 09:42:00 AM 20.7753 -90.8581 262° West  Level Estimated
Mon 09:43:00 AM 20.7601 -90.9671 262° West  Level Estimated
Mon 09:44:00 AM 20.7450 -91.0761 262° West  Level Estimated
Mon 09:45:00 AM 20.7297 -91.1850 262° West  Level Estimated
Mon 09:46:00 AM 20.7144 -91.2940 261° West  Level Estimated
Mon 09:47:00 AM 20.6990 -91.4029 261° West  Level Estimated
Mon 09:48:00 AM 20.6835 -91.5117 261° West  Level Estimated
Mon 09:49:00 AM 20.6680 -91.6206 261° West  Level Estimated
Mon 09:50:00 AM 20.6524 -91.7295 261° West  Level Estimated
Mon 09:51:00 AM 20.6367 -91.8383 261° West  Level Estimated
Mon 09:52:00 AM 20.6210 -91.9471 261° West  Level Estimated
Mon 09:53:00 AM 20.6052 -92.0559 261° West  Level Estimated
Mon 09:54:00 AM 20.5893 -92.1646 261° West  Level Estimated
Mon 09:55:00 AM 20.5734 -92.2733 261° West  Level Estimated
Mon 09:56:00 AM 20.5574 -92.3820 261° West  Level Estimated
Mon 09:57:00 AM 20.5413 -92.4907 261° West  Level Estimated
Mon 09:58:00 AM 20.5252 -92.5994 261° West  Level Estimated
Mon 09:59:00 AM 20.5090 -92.7080 261° West  Level Estimated
Mon 10:00:00 AM 20.4927 -92.8167 261° West  Level Estimated
Mon 10:01:00 AM 20.4764 -92.9252 261° West  Level Estimated
Mon 10:02:00 AM 20.4600 -93.0338 261° West  Level Estimated
Mon 10:03:00 AM 20.4435 -93.1424 261° West  Level Estimated
Mon 10:04:00 AM 20.4270 -93.2509 261° West  Level Estimated
Mon 10:05:00 AM 20.4103 -93.3594 261° West  Level Estimated
Mon 10:06:00 AM 20.3937 -93.4679 261° West  Level Estimated
Mon 10:07:00 AM 20.3769 -93.5763 261° West  Level Estimated
Mon 10:08:00 AM 20.3601 -93.6848 261° West  Level Estimated
Mon 10:09:00 AM 20.3432 -93.7932 261° West  Level Estimated
Mon 10:10:00 AM 20.3263 -93.9015 261° West  Level Estimated
Mon 10:11:00 AM 20.3093 -94.0099 261° West  Level Estimated
Mon 10:12:00 AM 20.2922 -94.1182 260° West  Level Estimated
Mon 10:13:00 AM 20.2750 -94.2265 260° West  Level Estimated
Mon 10:14:00 AM 20.2578 -94.3348 260° West  Level Estimated
Mon 10:15:00 AM 20.2405 -94.4431 260° West  Level Estimated
Mon 10:16:00 AM 20.2232 -94.5513 260° West  Level Estimated
Mon 10:17:00 AM 20.2058 -94.6596 260° West  Level Estimated
Mon 10:18:00 AM 20.1883 -94.7678 260° West  Level Estimated
Mon 10:19:00 AM 20.1708 -94.8759 260° West  Level Estimated
Mon 10:20:00 AM 20.1532 -94.9841 260° West  Level Estimated
Mon 10:21:00 AM 20.1355 -95.0922 260° West  Level Estimated
Mon 10:22:00 AM 20.1177 -95.2003 260° West  Level Estimated
Mon 10:23:00 AM 20.0999 -95.3083 260° West  Level Estimated
Mon 10:24:00 AM 20.0821 -95.4164 260° West  Level Estimated
Mon 10:25:00 AM 20.0641 -95.5244 260° West  Level Estimated
Mon 10:26:00 AM 20.0461 -95.6324 260° West  Level Estimated
Mon 10:27:00 AM 20.0280 -95.7404 260° West  Level Estimated
Mon 10:28:00 AM 20.0099 -95.8483 260° West  Level Estimated
Mon 10:29:00 AM 19.9917 -95.9562 260° West  Level Estimated
Mon 10:30:00 AM 19.9734 -96.0641 260° West  Level Estimated
Mon 10:31:00 AM 19.9551 -96.1720 260° West  Level Estimated
Mon 10:32:00 AM 19.9367 -96.2798 260° West  Level Estimated
Mon 10:33:00 AM 19.9182 -96.3877 260° West  Level Estimated
Mon 10:34:00 AM 19.8997 -96.4955 260° West  Level Estimated
Mon 10:35:00 AM 19.8811 -96.6032 260° West  Level Estimated
Mon 10:36:00 AM 19.8625 -96.7110 260° West  Level Estimated
Mon 10:37:00 AM 19.8437 -96.8187 260° West  Level Estimated
Mon 10:38:00 AM 19.8249 -96.9264 260° West  Level Estimated
Mon 10:39:00 AM 19.8061 -97.0340 259° West  Level Estimated
Mon 10:40:00 AM 19.7872 -97.1417 259° West  Level Estimated
Mon 10:41:00 AM 19.7682 -97.2493 259° West  Level Estimated
Mon 10:42:00 AM 19.7492 -97.3569 259° West  Level Estimated
Mon 10:43:00 AM 19.7301 -97.4645 259° West  Level Estimated
Mon 10:44:00 AM 19.7109 -97.5720 259° West  Level Estimated
Mon 10:45:00 AM 19.6917 -97.6795 259° West  Level Estimated
Mon 10:46:00 AM 19.6723 -97.7870 259° West  Level Estimated
Mon 10:47:00 AM 19.6530 -97.8945 259° West  Level Estimated
Mon 10:48:00 AM 19.6336 -98.0019 259° West  Level Estimated
Mon 10:49:00 AM 19.6141 -98.1093 259° West  Level Estimated
Mon 10:50:00 AM 19.5945 -98.2167 259° West  Level Estimated
Mon 10:51:00 AM 19.5749 -98.3241 259° West  Level Estimated
Mon 10:52:00 AM 19.5552 -98.4314 259° West  Level Estimated
Mon 10:53:00 AM 19.5355 -98.5387 259° West  Level Estimated
Mon 10:54:00 AM 19.5156 -98.6460 259° West  Level Estimated
Mon 10:55:00 AM 19.4958 -98.7532 259° West  Level Estimated
Mon 10:56:00 AM 19.4758 -98.8605 259° West  Level Estimated
Mon 10:57:00 AM 19.4559 -98.9677 259° West  Level Estimated
Mon 10:58:00 AM 19.4363 -99.0721 259° West  Level Estimated
Mon 10:59:00 AM 19.4363 -99.0721 43° Northeast  Level Estimated
Mon 11:00:00 AM 19.4363 -99.0721 43° Northeast  Level Estimated
Mon 11:01:00 AM 19.4363 -99.0721 43° Northeast  Level Estimated
Mon 11:02:00 AM 19.4363 -99.0721 43° Northeast  Level Estimated
Mon 11:03:00 AM 19.4363 -99.0721 43° Northeast  Level Estimated
Mon 11:04:00 AM 19.4363 -99.0721 43° Northeast  Level Estimated
Mon 11:05:00 AM 19.4363 -99.0721 43° Northeast  Level Estimated
Mon 11:06:00 AM 19.4363 -99.0721 43° Northeast  Level Estimated
Mon 11:07:00 AM 19.4363 -99.0721 43° Northeast  Level Estimated
Mon 11:08:00 AM 19.4363 -99.0721 43° Northeast  Level Estimated
Mon 11:09:00 AM 19.4363 -99.0721 43° Northeast  Level Estimated
Mon 11:10:00 AM 19.4363 -99.0721 43° Northeast  Level Estimated
Mon 11:11:00 AM 19.4363 -99.0721 43° Northeast  Level Estimated
Mon 11:12:00 AM 19.4363 -99.0721 43° Northeast  Level Estimated
Mon 11:13:00 AM 19.4363 -99.0721 43° Northeast  Level Estimated
Mon 11:14:00 AM 19.4363 -99.0721 43° Northeast  Level Estimated

Login

Don't have an account? Register now (free) for customized features, flight alerts, and more!